North Haven, Maine
Current Conditions -  °F | °C
As of 8:55 PM on Friday 24 Oct 2014 (Local Time) from KRKD Reporting Station
Overcast Overcast  
Wind Chill: 44°   Ceiling: 1500
Heat Index: 46°   Visibility: 9mi
Dew Point: 45°   Wind: 5mph
Humidity: 93%   Direction: 300°WNW
Pressure: 29.66"   Gusts: NA
Location:  44.13°N, 68.87°W
Report Text: KRKD 250055Z AUTO 30004KT 9SM SCT009 OVC015 08/07 A2966 RMK AO1 P0005
Loading
Personal Weather Stations






























Interactive Weather Map
Tropical Storm Tracking
New forecast layout! Learn more

10-Day Weather Forecast

Advertisements
Track Severe Weather on mobile